Time;durP1;ratioP1;P1;durP2;ratioP2;P2;SDS_P1;SDS_P2;PMS_P1;PMS_P2;Temp;Humidity;BMP_temperature;BMP_pressure;BME280_temperature;BME280_humidity;BME280_pressure;Samples;Min_cycle;Max_cycle;Signal;HPM_P1;HPM_P2
2022/04/23 00:02:22;;;;;;;40.00;33.90;;;;;;;5.40;65.01;99984.92;110454;1258;21975;-81
2022/04/23 00:04:52;;;;;;;40.80;35.00;;;;;;;5.38;65.13;99987.36;110244;1259;23701;-80
2022/04/23 00:07:25;;;;;;;43.70;37.00;;;;;;;5.35;65.16;99985.85;110287;1257;23048;-80
2022/04/23 00:09:55;;;;;;;45.00;36.30;;;;;;;5.31;65.18;99980.81;109975;1263;22772;-80
2022/04/23 00:12:25;;;;;;;40.90;36.50;;;;;;;5.26;65.20;99982.18;109173;1267;22859;-80
2022/04/23 00:14:55;;;;;;;43.20;37.70;;;;;;;5.19;65.23;99976.55;109046;1267;23593;-81
2022/04/23 00:17:24;;;;;;;44.00;38.10;;;;;;;5.12;65.29;99976.36;109257;1267;23596;-82
2022/04/23 00:19:57;;;;;;;47.90;39.80;;;;;;;5.04;65.33;99980.34;109323;1264;23074;-81
2022/04/23 00:22:30;;;;;;;40.80;36.30;;;;;;;4.98;65.38;99983.35;109533;1264;23635;-81
2022/04/23 00:24:59;;;;;;;43.10;36.70;;;;;;;4.93;65.43;99980.20;109103;1267;21978;-81
2022/04/23 00:27:35;;;;;;;40.90;35.20;;;;;;;4.87;65.46;99972.52;109214;1268;23665;-81
2022/04/23 00:30:11;;;;;;;44.30;37.90;;;;;;;4.82;65.49;99969.65;109457;1261;24279;-81
2022/04/23 00:32:46;;;;;;;44.70;36.50;;;;;;;4.78;65.64;99969.48;109530;1261;22311;-81
2022/04/23 00:35:18;;;;;;;44.70;37.40;;;;;;;4.73;65.67;99971.32;110109;1257;22107;-80
2022/04/23 00:37:50;;;;;;;44.40;38.10;;;;;;;4.69;65.87;99968.55;110262;1258;21955;-81
2022/04/23 00:40:21;;;;;;;43.30;34.90;;;;;;;4.65;65.96;99970.53;110503;1257;21962;-80
2022/04/23 00:42:58;;;;;;;42.90;34.90;;;;;;;4.62;66.16;99969.41;110317;1258;22161;-80
2022/04/23 00:45:28;;;;;;;44.00;35.90;;;;;;;4.58;66.09;99974.64;109362;1264;21980;-80
2022/04/23 00:47:58;;;;;;;39.50;33.00;;;;;;;4.54;66.08;99972.77;109240;1266;22013;-81
2022/04/23 00:50:27;;;;;;;40.10;33.70;;;;;;;4.50;66.20;99970.97;109869;1258;24301;-81
2022/04/23 00:53:03;;;;;;;40.60;34.50;;;;;;;4.45;66.23;99964.65;109749;1261;22019;-80
2022/04/23 00:55:39;;;;;;;36.50;32.60;;;;;;;4.39;66.29;99960.30;109272;1268;21992;-81
2022/04/23 00:58:09;;;;;;;39.60;32.70;;;;;;;4.34;66.40;99959.52;109080;1267;21989;-81
2022/04/23 01:00:43;;;;;;;41.80;33.30;;;;;;;4.30;66.46;99958.20;109066;1269;21987;-80
2022/04/23 01:03:14;;;;;;;41.40;32.40;;;;;;;4.24;66.70;99955.14;108960;1270;21981;-81
2022/04/23 01:05:47;;;;;;;43.50;31.50;;;;;;;4.21;66.95;99953.52;108553;1276;22989;-81
2022/04/23 01:08:19;;;;;;;41.90;32.50;;;;;;;4.19;67.09;99954.20;108546;1276;23925;-81
2022/04/23 01:10:52;;;;;;;36.20;32.40;;;;;;;4.17;67.23;99954.56;108875;1267;23092;-82
2022/04/23 01:13:25;;;;;;;35.30;31.50;;;;;;;4.15;67.36;99958.93;109379;1264;21978;-81
2022/04/23 01:16:09;;;;;;;38.40;31.70;;;;;;;4.15;67.52;99958.63;109087;1267;23205;-81
2022/04/23 01:18:45;;;;;;;36.80;31.90;;;;;;;4.13;67.54;99959.14;109272;1267;23167;-81
2022/04/23 01:21:18;;;;;;;37.20;30.70;;;;;;;4.09;67.47;99957.05;109452;1260;22185;-82
2022/04/23 01:23:52;;;;;;;40.70;34.40;;;;;;;4.05;67.53;99954.60;109912;1254;23582;-81
2022/04/23 01:26:29;;;;;;;39.50;34.00;;;;;;;4.02;67.71;99952.26;109802;1260;23050;-80
2022/04/23 01:29:01;;;;;;;41.80;35.40;;;;;;;3.97;67.85;99950.44;110081;1259;22003;-81
2022/04/23 01:31:34;;;;;;;40.10;33.40;;;;;;;3.93;67.88;99949.24;109839;1262;21971;-80
2022/04/23 01:34:19;;;;;;;42.30;34.10;;;;;;;3.89;67.98;99945.73;110084;1257;23792;-81
2022/04/23 01:36:51;;;;;;;43.60;35.10;;;;;;;3.87;68.16;99944.69;110675;1254;21971;-82
2022/04/23 01:39:23;;;;;;;40.80;33.90;;;;;;;3.86;68.14;99938.85;110671;1254;23078;-83
2022/04/23 01:41:54;;;;;;;38.30;33.20;;;;;;;3.83;68.07;99934.94;110596;1254;21966;-82
2022/04/23 01:44:25;;;;;;;40.00;34.30;;;;;;;3.81;68.20;99930.98;110553;1256;21939;-82
2022/04/23 01:47:00;;;;;;;37.50;33.00;;;;;;;3.78;68.19;99930.13;110443;1254;23028;-81
2022/04/23 01:49:30;;;;;;;39.50;34.00;;;;;;;3.75;68.27;99924.28;110351;1260;23117;-81
2022/04/23 01:51:59;;;;;;;38.20;34.10;;;;;;;3.73;68.32;99925.16;110342;1255;21966;-80
2022/04/23 01:54:29;;;;;;;39.90;35.60;;;;;;;3.71;68.40;99920.11;109809;1262;21976;-80
2022/04/23 01:57:00;;;;;;;42.70;35.20;;;;;;;3.70;68.53;99921.64;110141;1260;21971;-80
2022/04/23 01:59:32;;;;;;;41.90;34.30;;;;;;;3.68;68.49;99923.89;109541;1266;21976;-81
2022/04/23 02:02:03;;;;;;;41.40;34.70;;;;;;;3.65;68.47;99923.80;109456;1266;21971;-82
2022/04/23 02:04:33;;;;;;;41.20;33.50;;;;;;;3.62;68.55;99923.20;109905;1264;22469;-81
2022/04/23 02:07:03;;;;;;;38.60;34.00;;;;;;;3.60;68.54;99921.13;109466;1260;23835;-81
2022/04/23 02:09:39;;;;;;;41.60;32.70;;;;;;;3.56;68.50;99921.48;109373;1266;23704;-81
2022/04/23 02:12:15;;;;;;;38.50;32.80;;;;;;;3.51;68.61;99923.08;109404;1263;23777;-81
2022/04/23 02:14:45;;;;;;;38.20;33.80;;;;;;;3.49;68.73;99919.07;109770;1262;23719;-82
2022/04/23 02:17:18;;;;;;;39.90;33.20;;;;;;;3.46;68.74;99919.84;109435;1261;22743;-81
2022/04/23 02:19:55;;;;;;;39.80;34.00;;;;;;;3.44;68.78;99921.84;109299;1267;22749;-83
2022/04/23 02:22:27;;;;;;;41.10;34.20;;;;;;;3.41;68.80;99920.18;109418;1264;22507;-82
2022/04/23 02:25:00;;;;;;;36.80;32.00;;;;;;;3.39;69.03;99919.23;109405;1267;23690;-81
2022/04/23 02:27:57;;;;;;;36.20;32.00;;;;;;;3.38;69.15;99919.39;109535;1260;23711;-81
2022/04/23 02:30:28;;;;;;;39.40;35.40;;;;;;;3.36;69.35;99918.34;109988;1263;22767;-82
2022/04/23 02:33:01;;;;;;;40.40;33.80;;;;;;;3.35;69.58;99916.45;109953;1260;22280;-81
2022/04/23 02:35:34;;;;;;;39.90;34.70;;;;;;;3.37;69.63;99915.09;110101;1257;22501;-82
2022/04/23 02:38:23;;;;;;;39.40;34.80;;;;;;;3.37;69.74;99916.88;110155;1257;21985;-82
2022/04/23 02:40:53;;;;;;;39.40;35.10;;;;;;;3.34;69.80;99916.23;110430;1257;23526;-81
2022/04/23 02:43:23;;;;;;;40.70;35.60;;;;;;;3.35;70.06;99921.06;110209;1258;23069;-81
2022/04/23 02:45:55;;;;;;;46.20;35.50;;;;;;;3.35;70.20;99920.54;110636;1255;23700;-81
2022/04/23 02:48:25;;;;;;;38.70;34.60;;;;;;;3.33;70.21;99921.91;110349;1257;23241;-80
2022/04/23 02:50:57;;;;;;;40.80;36.30;;;;;;;3.33;70.29;99922.98;110238;1257;24301;-81
2022/04/23 02:53:27;;;;;;;44.30;39.50;;;;;;;3.34;70.42;99922.35;109585;1265;23583;-83
2022/04/23 02:56:02;;;;;;;42.10;37.60;;;;;;;3.33;70.39;99922.59;109689;1263;22746;-80
2022/04/23 02:58:32;;;;;;;48.60;39.10;;;;;;;3.31;70.40;99919.06;109490;1261;23727;-82
2022/04/23 03:01:10;;;;;;;48.30;39.10;;;;;;;3.32;70.59;99917.77;109849;1264;22428;-82
2022/04/23 03:03:40;;;;;;;47.30;38.70;;;;;;;3.34;70.77;99917.82;109525;1263;22070;-82
2022/04/23 03:06:17;;;;;;;43.40;38.30;;;;;;;3.35;70.81;99917.36;109587;1261;21974;-82
2022/04/23 03:08:48;;;;;;;44.70;38.20;;;;;;;3.37;70.84;99917.76;109775;1262;21980;-81
2022/04/23 03:11:19;;;;;;;41.10;36.70;;;;;;;3.39;70.84;99916.52;109870;1260;23699;-81
2022/04/23 03:13:51;;;;;;;44.60;36.50;;;;;;;3.39;70.73;99916.46;110260;1257;21989;-83
2022/04/23 03:16:28;;;;;;;39.30;35.00;;;;;;;3.38;70.46;99914.51;110404;1258;23598;-83
2022/04/23 03:19:04;;;;;;;36.30;32.50;;;;;;;3.34;70.19;99918.70;109577;1262;21972;-84
2022/04/23 03:21:34;;;;;;;40.40;33.10;;;;;;;3.29;70.14;99921.86;109886;1263;22489;-82
2022/04/23 03:24:04;;;;;;;46.30;36.30;;;;;;;3.24;70.08;99920.04;109904;1260;21981;-83
2022/04/23 03:26:38;;;;;;;37.80;33.40;;;;;;;3.20;70.30;99922.96;109602;1264;21969;-81
2022/04/23 03:29:07;;;;;;;39.10;34.70;;;;;;;3.17;70.45;99922.23;109438;1263;24307;-82
2022/04/23 03:31:42;;;;;;;43.20;36.40;;;;;;;3.14;70.61;99925.28;109486;1260;21990;-81
2022/04/23 03:34:11;;;;;;;46.00;38.30;;;;;;;3.10;70.76;99926.81;109370;1267;22005;-81
2022/04/23 03:36:45;;;;;;;42.10;37.70;;;;;;;3.08;70.96;99930.10;109482;1260;22442;-81
2022/04/23 03:39:15;;;;;;;44.70;39.80;;;;;;;3.08;71.08;99928.55;109907;1263;23143;-81
2022/04/23 03:41:46;;;;;;;49.60;39.40;;;;;;;3.08;71.05;99930.48;109800;1261;21988;-80
2022/04/23 03:44:23;;;;;;;41.30;37.00;;;;;;;3.09;71.17;99928.79;110084;1257;21992;-84
2022/04/23 03:46:54;;;;;;;42.60;37.80;;;;;;;3.12;71.29;99926.77;110373;1257;23045;-84
2022/04/23 03:49:30;;;;;;;46.50;38.50;;;;;;;3.15;71.37;99926.34;110509;1257;22100;-84
2022/04/23 03:52:06;;;;;;;41.40;36.90;;;;;;;3.19;71.38;99925.52;110381;1257;21978;-82
2022/04/23 03:54:38;;;;;;;43.20;35.40;;;;;;;3.21;71.31;99927.27;110027;1260;23157;-82
2022/04/23 03:57:10;;;;;;;41.30;37.00;;;;;;;3.23;71.28;99930.75;109732;1261;21965;-82
2022/04/23 03:59:39;;;;;;;43.30;38.10;;;;;;;3.24;71.31;99929.95;110177;1257;22243;-82
2022/04/23 04:02:12;;;;;;;42.50;38.10;;;;;;;3.26;71.37;99928.04;109910;1263;21993;-82
2022/04/23 04:04:43;;;;;;;42.60;38.00;;;;;;;3.29;71.35;99928.16;109828;1263;22007;-82
2022/04/23 04:07:19;;;;;;;43.20;38.60;;;;;;;3.33;71.50;99922.25;110125;1263;21972;-82
2022/04/23 04:09:55;;;;;;;39.90;35.80;;;;;;;3.40;71.74;99920.61;109223;1267;22090;-83
2022/04/23 04:12:30;;;;;;;41.70;37.20;;;;;;;3.50;72.09;99915.72;109207;1264;21970;-81
2022/04/23 04:15:17;;;;;;;41.00;36.70;;;;;;;3.63;72.39;99909.16;109105;1267;22005;-83
2022/04/23 04:17:55;;;;;;;38.50;33.90;;;;;;;3.78;72.70;99907.86;108881;1273;22075;-82
2022/04/23 04:20:32;;;;;;;39.10;35.00;;;;;;;3.92;72.82;99908.01;108588;1279;22040;-82
2022/04/23 04:23:05;;;;;;;39.40;33.60;;;;;;;4.06;72.72;99906.97;108460;1280;21998;-81
2022/04/23 04:25:35;;;;;;;34.90;31.40;;;;;;;4.20;72.63;99911.95;108590;1279;23099;-82
2022/04/23 04:28:05;;;;;;;34.70;31.20;;;;;;;4.34;72.50;99910.88;108881;1270;23004;-83
2022/04/23 04:33:29;;;;;;;34.90;31.50;;;;;;;4.63;72.09;99912.72;109039;1270;23058;-82
2022/04/23 04:35:59;;;;;;;36.80;33.00;;;;;;;4.78;71.80;99914.25;109241;1263;21979;-81
2022/04/23 04:38:31;;;;;;;41.50;34.60;;;;;;;4.95;71.76;99911.77;109910;1257;21968;-81
2022/04/23 04:41:05;;;;;;;36.30;32.40;;;;;;;5.13;71.56;99907.25;109824;1260;21964;-81
2022/04/23 04:43:37;;;;;;;39.40;33.70;;;;;;;5.29;70.97;99909.77;109121;1267;21983;-82
2022/04/23 04:46:06;;;;;;;38.20;33.60;;;;;;;5.48;70.71;99912.55;109258;1267;21984;-82
2022/04/23 04:48:41;;;;;;;36.30;32.50;;;;;;;5.66;70.31;99912.44;109070;1267;21992;-85
2022/04/23 04:51:11;;;;;;;40.00;33.60;;;;;;;5.83;70.15;99912.13;109335;1267;22006;-84
2022/04/23 04:53:50;;;;;;;38.10;34.20;;;;;;;6.03;69.94;99911.87;109163;1270;22794;-83
2022/04/23 04:56:44;;;;;;;38.30;34.30;;;;;;;6.24;69.59;99915.09;109433;1270;22286;-87
2022/04/23 04:59:16;;;;;;;37.60;32.50;;;;;;;6.43;68.91;99911.11;109463;1270;21995;-84
2022/04/23 05:01:55;;;;;;;39.70;33.40;;;;;;;6.60;68.45;99906.73;109836;1266;21962;-86
2022/04/23 05:04:53;;;;;;;35.30;31.60;;;;;;;6.87;68.43;99904.44;110049;1265;21997;-85
2022/04/23 05:07:29;;;;;;;36.20;32.10;;;;;;;7.21;68.00;99899.73;111222;1258;21938;-83
2022/04/23 05:10:03;;;;;;;32.90;29.50;;;;;;;7.48;67.20;99901.45;110052;1257;21932;-83
2022/04/23 05:12:32;;;;;;;38.10;31.00;;;;;;;7.74;66.74;99904.04;109497;1264;21974;-81
2022/04/23 05:15:02;;;;;;;34.60;30.40;;;;;;;8.02;66.32;99906.69;108997;1270;21994;-83
2022/04/23 05:17:46;;;;;;;33.00;29.60;;;;;;;8.24;65.53;99913.13;109135;1270;23044;-81
2022/04/23 05:20:26;;;;;;;33.20;28.60;;;;;;;8.51;64.99;99915.23;108897;1272;23074;-80
2022/04/23 05:22:58;;;;;;;32.20;28.90;;;;;;;8.75;64.67;99914.21;109121;1270;21995;-85
2022/04/23 05:25:31;;;;;;;33.40;29.70;;;;;;;8.97;63.66;99914.97;109028;1271;21987;-83
2022/04/23 05:28:05;;;;;;;31.80;28.50;;;;;;;9.17;62.81;99915.45;109059;1270;21987;-82
2022/04/23 05:30:50;;;;;;;31.40;28.20;;;;;;;9.36;62.09;99919.64;108834;1273;21996;-82
2022/04/23 05:33:19;;;;;;;30.60;27.20;;;;;;;9.58;61.85;99917.01;109137;1267;22294;-83
2022/04/23 05:35:50;;;;;;;31.30;28.10;;;;;;;9.81;61.53;99917.19;109102;1270;21968;-82
2022/04/23 05:38:22;;;;;;;30.50;27.50;;;;;;;10.13;61.63;99917.05;108751;1275;22000;-82
2022/04/23 05:40:57;;;;;;;29.70;26.70;;;;;;;10.54;61.32;99918.73;108557;1278;23779;-82
2022/04/23 05:43:34;;;;;;;29.10;26.20;;;;;;;10.89;60.08;99919.96;108466;1281;22027;-82
2022/04/23 05:46:07;;;;;;;29.30;26.30;;;;;;;11.14;58.99;99917.89;108308;1281;22004;-82
2022/04/23 05:48:41;;;;;;;30.70;27.50;;;;;;;11.48;59.18;99919.85;108471;1275;22030;-81
2022/04/23 05:51:12;;;;;;;29.90;26.80;;;;;;;11.84;58.29;99917.39;108756;1273;21994;-81
2022/04/23 05:53:45;;;;;;;28.90;26.10;;;;;;;11.96;56.01;99917.36;108569;1278;22446;-82
2022/04/23 05:56:22;;;;;;;29.30;26.30;;;;;;;12.10;55.85;99919.95;108779;1272;22003;-82
2022/04/23 05:58:56;;;;;;;29.20;26.10;;;;;;;12.34;55.76;99921.13;108933;1270;22221;-81
2022/04/23 06:01:29;;;;;;;28.70;25.90;;;;;;;12.58;55.37;99925.41;108684;1276;23036;-81
2022/04/23 06:03:58;;;;;;;28.20;25.30;;;;;;;12.80;54.66;99930.52;108280;1281;24419;-81
2022/04/23 06:06:32;;;;;;;32.70;29.60;;;;;;;13.03;54.47;99928.08;108304;1282;22921;-81
2022/04/23 06:09:01;;;;;;;30.10;27.00;;;;;;;13.31;53.80;99928.80;108121;1284;22050;-82
2022/04/23 06:11:31;;;;;;;29.50;26.10;;;;;;;13.53;53.24;99926.14;108448;1276;23095;-81
2022/04/23 06:14:04;;;;;;;28.40;25.60;;;;;;;13.80;52.76;99922.58;108264;1281;23823;-82
2022/04/23 06:16:39;;;;;;;29.90;26.70;;;;;;;14.02;52.02;99919.09;108254;1281;22046;-82
2022/04/23 06:19:09;;;;;;;30.20;26.90;;;;;;;14.22;51.45;99917.54;108171;1278;24059;-78
2022/04/23 06:21:40;;;;;;;33.50;29.80;;;;;;;14.44;51.14;99918.30;108374;1273;22068;-75
2022/04/23 06:24:09;;;;;;;32.30;28.90;;;;;;;14.67;50.67;99920.20;108775;1267;22038;-77
2022/04/23 06:26:38;;;;;;;31.10;27.80;;;;;;;14.83;49.82;99917.41;108710;1273;24579;-77
2022/04/23 06:29:07;;;;;;;28.90;25.80;;;;;;;14.97;49.40;99917.52;108460;1276;23156;-77
2022/04/23 06:31:41;;;;;;;29.30;26.20;;;;;;;15.08;49.02;99921.12;108410;1273;22418;-76
2022/04/23 06:34:13;;;;;;;29.80;26.70;;;;;;;15.22;48.78;99922.15;108423;1273;22103;-77
2022/04/23 06:36:42;;;;;;;33.30;28.00;;;;;;;15.37;48.48;99918.95;108481;1270;21990;-77
2022/04/23 06:39:12;;;;;;;30.30;27.30;;;;;;;15.55;48.11;99913.86;108735;1271;22476;-80
2022/04/23 06:41:43;;;;;;;26.60;23.90;;;;;;;15.68;47.60;99910.46;108468;1273;22797;-76
2022/04/23 06:44:14;;;;;;;26.50;23.70;;;;;;;15.85;47.45;99912.02;108418;1273;23075;-77
2022/04/23 06:46:47;;;;;;;29.00;26.10;;;;;;;16.12;47.34;99912.73;108297;1276;22062;-77
2022/04/23 06:49:16;;;;;;;27.60;24.70;;;;;;;16.35;46.45;99910.70;108511;1272;22764;-82
2022/04/23 06:51:50;;;;;;;27.80;25.00;;;;;;;16.53;45.68;99911.01;108970;1270;21996;-81
2022/04/23 06:54:20;;;;;;;25.60;23.00;;;;;;;16.70;45.35;99908.95;108998;1269;22046;-78
2022/04/23 06:56:49;;;;;;;25.80;23.20;;;;;;;16.98;45.46;99909.90;108916;1270;21997;-76
2022/04/23 06:59:18;;;;;;;28.50;24.40;;;;;;;17.39;45.22;99906.09;108425;1273;23659;-77
2022/04/23 07:01:47;;;;;;;26.60;24.00;;;;;;;17.68;43.70;99906.15;108802;1272;22055;-82
2022/04/23 07:04:20;;;;;;;25.60;23.20;;;;;;;17.86;42.73;99907.15;108508;1270;23725;-76
2022/04/23 07:06:49;;;;;;;23.60;21.20;;;;;;;18.01;42.03;99904.34;108907;1270;22233;-77
2022/04/23 07:09:18;;;;;;;23.50;21.40;;;;;;;18.11;41.58;99908.65;108876;1270;21971;-77
2022/04/23 07:11:48;;;;;;;23.00;20.90;;;;;;;18.23;41.47;99904.32;108934;1266;22002;-77
2022/04/23 07:14:17;;;;;;;19.90;18.10;;;;;;;18.37;41.35;99905.95;109198;1266;22986;-77
2022/04/23 07:16:48;;;;;;;21.40;19.40;;;;;;;18.57;40.97;99903.61;109053;1261;23679;-76
2022/04/23 07:19:17;;;;;;;21.20;19.30;;;;;;;18.87;40.94;99900.61;110013;1259;23842;-76
2022/04/23 07:21:46;;;;;;;23.90;21.60;;;;;;;19.20;40.29;99897.70;109694;1260;22266;-77
2022/04/23 07:24:21;;;;;;;20.40;18.30;;;;;;;19.43;39.27;99891.66;109931;1259;21968;-76
2022/04/23 07:26:50;;;;;;;22.40;20.20;;;;;;;19.49;38.13;99892.54;110165;1258;21953;-77
2022/04/23 07:29:19;;;;;;;19.70;17.40;;;;;;;19.46;38.15;99889.86;109731;1261;22134;-79
2022/04/23 07:31:48;;;;;;;19.30;17.40;;;;;;;19.58;38.58;99893.09;110011;1258;22175;-77
2022/04/23 07:40:10;;;;;;;21.30;17.20;;;;;;;20.16;36.90;99896.02;109991;1260;23730;-79
2022/04/23 07:42:40;;;;;;;19.10;17.50;;;;;;;20.28;36.64;99894.71;110023;1259;22939;-76
2022/04/23 07:45:10;;;;;;;20.50;18.50;;;;;;;20.44;36.63;99891.64;109176;1266;22707;-77
2022/04/23 07:47:41;;;;;;;19.30;17.30;;;;;;;20.54;35.98;99889.09;109568;1264;22827;-77
2022/04/23 07:50:10;;;;;;;20.20;18.40;;;;;;;20.72;36.00;99892.70;109293;1264;23094;-77
2022/04/23 07:52:39;;;;;;;18.00;16.50;;;;;;;20.95;36.00;99895.50;109499;1264;23733;-78
2022/04/23 07:55:09;;;;;;;21.50;17.50;;;;;;;21.23;35.49;99894.59;109584;1264;22476;-80
2022/04/23 07:57:41;;;;;;;18.50;16.60;;;;;;;21.43;34.72;99890.46;109564;1264;21984;-82
2022/04/23 08:00:16;;;;;;;19.50;17.60;;;;;;;21.60;34.07;99889.54;109654;1264;23005;-77
2022/04/23 08:02:45;;;;;;;18.40;16.50;;;;;;;21.71;33.52;99891.11;109037;1264;22088;-78
2022/04/23 08:05:16;;;;;;;17.30;15.90;;;;;;;21.83;33.33;99887.59;108828;1270;24306;-75
2022/04/23 08:07:46;;;;;;;17.60;15.90;;;;;;;21.96;32.76;99884.74;108884;1270;23720;-76
2022/04/23 08:10:15;;;;;;;17.60;16.00;;;;;;;22.07;32.29;99888.23;108935;1270;22068;-79
2022/04/23 08:12:45;;;;;;;19.30;17.60;;;;;;;22.15;31.87;99887.52;109130;1270;21978;-78
2022/04/23 08:15:16;;;;;;;18.50;16.50;;;;;;;22.19;31.83;99881.34;108863;1269;21982;-76
2022/04/23 08:17:48;;;;;;;15.70;14.00;;;;;;;22.32;31.84;99880.75;109055;1270;21987;-77
2022/04/23 08:20:17;;;;;;;13.80;12.50;;;;;;;22.44;31.23;99872.81;108658;1271;21982;-77
2022/04/23 08:22:51;;;;;;;12.70;11.50;;;;;;;22.45;30.64;99869.06;108968;1267;21988;-76
2022/04/23 08:25:20;;;;;;;14.30;13.00;;;;;;;22.52;30.54;99866.64;109487;1265;23692;-76
2022/04/23 08:30:47;;;;;;;9.00;6.90;;;;;;;22.57;29.57;99863.55;109214;1266;23160;-77
2022/04/23 08:33:22;;;;;;;9.80;8.20;;;;;;;22.54;28.84;99864.06;109458;1264;21985;-78
2022/04/23 08:35:52;;;;;;;12.90;9.00;;;;;;;22.61;28.90;99858.95;109541;1264;21972;-76
2022/04/23 08:38:22;;;;;;;12.50;9.20;;;;;;;22.70;28.90;99857.49;109693;1260;21968;-76
2022/04/23 08:40:52;;;;;;;10.30;7.00;;;;;;;22.82;28.75;99857.26;109968;1260;22012;-78
2022/04/23 08:43:23;;;;;;;6.90;6.10;;;;;;;22.90;28.17;99860.97;109921;1261;21971;-78
2022/04/23 08:45:56;;;;;;;8.40;7.00;;;;;;;22.77;27.74;99859.69;109707;1260;23682;-78
2022/04/23 08:48:34;;;;;;;8.10;7.00;;;;;;;22.75;27.98;99856.45;109996;1260;21992;-78
2022/04/23 08:51:07;;;;;;;10.40;9.40;;;;;;;22.86;27.89;99861.63;109647;1261;21975;-77
2022/04/23 08:53:40;;;;;;;10.10;7.80;;;;;;;22.97;27.74;99861.07;109809;1261;22171;-76
2022/04/23 08:56:10;;;;;;;9.10;7.30;;;;;;;23.03;27.31;99856.96;109840;1261;21982;-77
2022/04/23 08:58:39;;;;;;;6.50;5.80;;;;;;;23.07;27.13;99850.08;109378;1262;22052;-78
2022/04/23 09:01:09;;;;;;;6.30;5.70;;;;;;;23.17;27.14;99855.41;109635;1262;22183;-78
2022/04/23 09:03:38;;;;;;;7.00;5.40;;;;;;;23.09;26.82;99858.93;109736;1263;21991;-77
2022/04/23 09:06:08;;;;;;;6.10;5.40;;;;;;;22.89;26.42;99858.87;109179;1267;23687;-77
2022/04/23 09:09:17;;;;;;;6.20;5.60;;;;;;;22.72;26.63;99858.37;109232;1267;22162;-78
2022/04/23 09:11:55;;;;;;;6.40;5.70;;;;;;;22.58;26.91;99853.55;109175;1267;22306;-78
2022/04/23 09:14:33;;;;;;;6.70;5.90;;;;;;;22.51;27.24;99848.05;109223;1267;23053;-76
2022/04/23 09:25:48;;;;;;;6.90;5.40;;;;;;;22.36;26.94;99836.39;109777;1260;23013;-80
2022/04/23 09:28:26;;;;;;;5.80;5.10;;;;;;;22.28;26.97;99832.12;109573;1260;21982;-77
2022/04/23 09:30:59;;;;;;;5.90;5.30;;;;;;;22.23;27.11;99836.34;109469;1264;23056;-76
2022/04/23 09:33:51;;;;;;;8.80;6.20;;;;;;;22.25;27.51;99833.02;109295;1264;21992;-79
2022/04/23 09:36:20;;;;;;;5.90;5.30;;;;;;;22.38;27.56;99834.84;109562;1263;22577;-78
2022/04/23 09:39:03;;;;;;;6.60;6.00;;;;;;;22.50;27.30;99834.48;109588;1264;23045;-77
2022/04/23 09:41:34;;;;;;;5.60;5.10;;;;;;;22.50;26.93;99831.04;109202;1267;22036;-78
2022/04/23 09:44:09;;;;;;;5.80;5.30;;;;;;;22.46;27.03;99828.00;109125;1267;23029;-76
2022/04/23 09:46:48;;;;;;;6.80;5.10;;;;;;;22.43;26.81;99828.35;109297;1267;21984;-79
2022/04/23 09:49:38;;;;;;;5.30;4.70;;;;;;;22.36;26.75;99823.08;109473;1263;23056;-78
2022/04/23 09:52:11;;;;;;;6.70;4.40;;;;;;;22.46;26.96;99821.70;109319;1267;21987;-78
2022/04/23 09:54:41;;;;;;;5.90;5.10;;;;;;;22.58;26.79;99819.51;108847;1270;21990;-79
2022/04/23 09:57:12;;;;;;;7.10;5.70;;;;;;;22.45;26.00;99820.56;108785;1272;22289;-78
2022/04/23 09:59:44;;;;;;;5.80;5.20;;;;;;;22.06;26.25;99820.89;108916;1267;23834;-78
2022/04/23 10:02:23;;;;;;;6.40;5.60;;;;;;;21.56;26.40;99822.50;109394;1265;22076;-79
2022/04/23 10:04:59;;;;;;;5.40;4.90;;;;;;;21.23;27.85;99820.99;109086;1269;21988;-78
2022/04/23 10:07:30;;;;;;;4.70;4.20;;;;;;;21.30;28.49;99818.08;108887;1270;21974;-78
2022/04/23 10:10:03;;;;;;;5.90;3.80;;;;;;;21.42;28.03;99813.06;108700;1273;23796;-77
2022/04/23 10:12:33;;;;;;;4.70;4.20;;;;;;;21.57;28.26;99816.02;108757;1270;22695;-76
2022/04/23 10:15:06;;;;;;;6.60;3.70;;;;;;;21.77;27.77;99817.52;109021;1270;22182;-77
2022/04/23 10:17:37;;;;;;;5.30;4.00;;;;;;;21.67;26.75;99817.99;108966;1270;22102;-78
2022/04/23 10:20:11;;;;;;;5.00;4.40;;;;;;;21.53;27.39;99824.86;108652;1273;21996;-77
2022/04/23 10:23:27;;;;;;;5.00;4.50;;;;;;;21.61;27.64;99822.84;108356;1272;23084;-78
2022/04/23 10:26:24;;;;;;;4.10;3.50;;;;;;;21.69;26.82;99822.64;108069;1281;22022;-78
2022/04/23 10:28:54;;;;;;;4.60;4.10;;;;;;;21.48;27.11;99818.77;107900;1282;24312;-79
2022/04/23 10:31:24;;;;;;;5.10;4.60;;;;;;;21.56;27.56;99817.74;107969;1282;23045;-77
2022/04/23 10:33:54;;;;;;;5.30;4.50;;;;;;;21.70;27.32;99817.23;108028;1282;22003;-78
2022/04/23 10:36:24;;;;;;;9.10;8.40;;;;;;;21.66;26.92;99811.88;108179;1282;22266;-78
2022/04/23 10:39:21;;;;;;;7.00;4.80;;;;;;;21.49;27.03;99810.19;108288;1277;22939;-79
2022/04/23 10:41:58;;;;;;;5.90;4.60;;;;;;;21.48;27.77;99808.83;108658;1276;22072;-79
2022/04/23 10:44:30;;;;;;;5.10;4.40;;;;;;;21.22;27.36;99805.19;108506;1277;21989;-78
2022/04/23 10:46:59;;;;;;;4.50;4.10;;;;;;;20.77;27.44;99810.26;108633;1267;22017;-78
2022/04/23 10:49:31;;;;;;;8.20;4.50;;;;;;;20.35;28.07;99810.91;108984;1267;22036;-84
2022/04/23 10:52:02;;;;;;;6.50;5.20;;;;;;;20.03;28.57;99805.80;109181;1267;21983;-79
2022/04/23 10:54:41;;;;;;;9.40;5.00;;;;;;;19.79;29.00;99807.90;109287;1267;22047;-78
2022/04/23 10:57:15;;;;;;;7.10;5.50;;;;;;;19.54;29.38;99806.26;109062;1267;22065;-78
2022/04/23 10:59:47;;;;;;;5.90;5.10;;;;;;;19.26;29.64;99802.30;109187;1267;23592;-80
2022/04/23 11:02:20;;;;;;;7.00;4.10;;;;;;;19.17;30.27;99794.89;109444;1261;22995;-78
2022/04/23 11:14:44;;;;;;;4.90;4.30;;;;;;;18.73;29.91;99794.83;109675;1260;22738;-79
2022/04/23 11:17:32;;;;;;;5.00;4.50;;;;;;;18.57;30.38;99792.96;109851;1261;22108;-77
2022/04/23 11:20:03;;;;;;;8.50;4.20;;;;;;;18.52;30.60;99788.89;110048;1260;21969;-78
2022/04/23 11:22:33;;;;;;;5.30;4.60;;;;;;;18.42;30.80;99785.33;109735;1258;22088;-79
2022/04/23 11:25:02;;;;;;;4.20;3.80;;;;;;;18.38;31.07;99784.84;110406;1257;22040;-79
2022/04/23 11:27:37;;;;;;;4.20;3.80;;;;;;;18.25;30.87;99786.52;110016;1257;22976;-79
2022/04/23 11:30:08;;;;;;;5.40;3.90;;;;;;;18.08;30.94;99781.46;110061;1257;23550;-79
2022/04/23 11:32:38;;;;;;;9.20;4.80;;;;;;;18.02;31.27;99786.71;109971;1260;23074;-79
2022/04/23 11:35:08;;;;;;;5.50;3.80;;;;;;;18.00;31.67;99782.55;109956;1260;23711;-78
2022/04/23 11:37:43;;;;;;;4.50;4.10;;;;;;;18.05;31.84;99780.86;109150;1267;22947;-77
2022/04/23 11:40:23;;;;;;;4.70;4.30;;;;;;;18.12;31.87;99780.75;108961;1267;22920;-78
2022/04/23 11:42:55;;;;;;;3.90;3.50;;;;;;;18.17;31.69;99777.45;108779;1270;22009;-79
2022/04/23 11:45:24;;;;;;;4.70;4.00;;;;;;;18.23;31.57;99776.98;108938;1270;22780;-77
2022/04/23 11:47:56;;;;;;;5.60;4.10;;;;;;;18.19;31.15;99776.44;108749;1270;21982;-78
2022/04/23 11:50:28;;;;;;;5.00;3.40;;;;;;;18.17;31.34;99772.27;108479;1275;311828;-78
2022/04/23 11:53:05;;;;;;;3.80;3.40;;;;;;;18.12;31.15;99778.84;108562;1273;22012;-79
2022/04/23 11:55:39;;;;;;;4.30;3.90;;;;;;;18.00;31.06;99778.33;108878;1267;21991;-79
2022/04/23 11:58:08;;;;;;;4.60;4.10;;;;;;;17.99;31.42;99770.02;109181;1267;21993;-78
2022/04/23 12:00:37;;;;;;;7.10;5.10;;;;;;;18.04;31.67;99766.28;109320;1263;21969;-78
2022/04/23 12:03:08;;;;;;;6.50;5.10;;;;;;;18.08;31.80;99768.85;109703;1263;22002;-78
2022/04/23 12:05:37;;;;;;;5.60;5.10;;;;;;;18.06;31.59;99769.27;109210;1267;23033;-79
2022/04/23 12:08:23;;;;;;;5.80;4.30;;;;;;;17.96;31.38;99768.17;108982;1270;22751;-78
2022/04/23 12:10:58;;;;;;;7.00;4.10;;;;;;;17.85;31.60;99764.02;109197;1267;22662;-79
2022/04/23 12:14:01;;;;;;;4.90;4.20;;;;;;;17.88;31.82;99762.42;108973;1267;21989;-77
2022/04/23 12:16:38;;;;;;;6.80;4.10;;;;;;;17.97;31.91;99766.11;109306;1266;22001;-78